sensor_id;sensor_type;location;lat;lon;timestamp;temperature;humidity
16829;DHT22;8531;48.078;11.968;2022-12-07T00:01:10;3.20;99.90
16829;DHT22;8531;48.078;11.968;2022-12-07T00:03:37;3.20;99.90
16829;DHT22;8531;48.078;11.968;2022-12-07T00:06:05;3.20;99.90
16829;DHT22;8531;48.078;11.968;2022-12-07T00:08:32;3.20;99.90
16829;DHT22;8531;48.078;11.968;2022-12-07T00:11:11;3.20;99.90
16829;DHT22;8531;48.078;11.968;2022-12-07T00:13:37;3.20;99.90
16829;DHT22;8531;48.078;11.968;2022-12-07T00:16:08;3.10;99.90
16829;DHT22;8531;48.078;11.968;2022-12-07T00:18:35;3.20;99.90
16829;DHT22;8531;48.078;11.968;2022-12-07T00:21:07;3.20;99.90
16829;DHT22;8531;48.078;11.968;2022-12-07T00:23:35;3.20;99.90
16829;DHT22;8531;48.078;11.968;2022-12-07T00:26:06;3.20;99.90
16829;DHT22;8531;48.078;11.968;2022-12-07T00:28:32;3.20;99.90
16829;DHT22;8531;48.078;11.968;2022-12-07T00:31:04;3.20;99.90
16829;DHT22;8531;48.078;11.968;2022-12-07T00:33:30;3.20;99.90
16829;DHT22;8531;48.078;11.968;2022-12-07T00:35:57;3.20;99.90
16829;DHT22;8531;48.078;11.968;2022-12-07T00:38:23;3.20;99.90
16829;DHT22;8531;48.078;11.968;2022-12-07T00:40:59;3.20;99.90
16829;DHT22;8531;48.078;11.968;2022-12-07T00:43:25;3.20;99.90
16829;DHT22;8531;48.078;11.968;2022-12-07T00:45:52;3.20;99.90
16829;DHT22;8531;48.078;11.968;2022-12-07T00:48:17;3.10;99.90
16829;DHT22;8531;48.078;11.968;2022-12-07T00:50:43;3.10;99.90
16829;DHT22;8531;48.078;11.968;2022-12-07T00:53:09;3.20;99.90
16829;DHT22;8531;48.078;11.968;2022-12-07T00:55:35;3.20;99.90
16829;DHT22;8531;48.078;11.968;2022-12-07T00:58:01;3.20;99.90
16829;DHT22;8531;48.078;11.968;2022-12-07T01:00:27;3.20;99.90
16829;DHT22;8531;48.078;11.968;2022-12-07T01:02:52;3.20;99.90
16829;DHT22;8531;48.078;11.968;2022-12-07T01:05:18;3.20;99.90
16829;DHT22;8531;48.078;11.968;2022-12-07T01:07:44;3.20;99.90
16829;DHT22;8531;48.078;11.968;2022-12-07T01:10:12;3.20;99.90
16829;DHT22;8531;48.078;11.968;2022-12-07T01:12:38;3.20;99.90
16829;DHT22;8531;48.078;11.968;2022-12-07T01:15:04;3.10;99.90
16829;DHT22;8531;48.078;11.968;2022-12-07T01:17:31;3.10;99.90
16829;DHT22;8531;48.078;11.968;2022-12-07T01:19:56;3.10;99.90
16829;DHT22;8531;48.078;11.968;2022-12-07T01:22:22;3.00;99.90
16829;DHT22;8531;48.078;11.968;2022-12-07T01:24:48;3.00;99.90
16829;DHT22;8531;48.078;11.968;2022-12-07T01:27:14;3.00;99.90
16829;DHT22;8531;48.078;11.968;2022-12-07T01:29:39;3.00;99.90
16829;DHT22;8531;48.078;11.968;2022-12-07T01:32:05;3.00;99.90
16829;DHT22;8531;48.078;11.968;2022-12-07T01:34:31;3.00;99.90
16829;DHT22;8531;48.078;11.968;2022-12-07T01:36:57;3.00;99.90
16829;DHT22;8531;48.078;11.968;2022-12-07T01:39:23;3.00;99.90
16829;DHT22;8531;48.078;11.968;2022-12-07T01:41:49;3.00;99.90
16829;DHT22;8531;48.078;11.968;2022-12-07T01:44:25;3.00;99.90
16829;DHT22;8531;48.078;11.968;2022-12-07T01:46:56;3.00;99.90
16829;DHT22;8531;48.078;11.968;2022-12-07T01:49:34;3.00;99.90
16829;DHT22;8531;48.078;11.968;2022-12-07T01:52:29;3.00;99.90
16829;DHT22;8531;48.078;11.968;2022-12-07T01:55:03;3.00;99.90
16829;DHT22;8531;48.078;11.968;2022-12-07T01:57:31;3.00;99.90
16829;DHT22;8531;48.078;11.968;2022-12-07T01:59:57;3.00;99.90
16829;DHT22;8531;48.078;11.968;2022-12-07T02:02:35;3.00;99.90
16829;DHT22;8531;48.078;11.968;2022-12-07T02:05:04;3.00;99.90
16829;DHT22;8531;48.078;11.968;2022-12-07T02:07:31;3.00;99.90
16829;DHT22;8531;48.078;11.968;2022-12-07T02:09:57;3.00;99.90
16829;DHT22;8531;48.078;11.968;2022-12-07T02:12:36;3.00;99.90
16829;DHT22;8531;48.078;11.968;2022-12-07T02:15:02;3.00;99.90
16829;DHT22;8531;48.078;11.968;2022-12-07T02:17:54;3.00;99.90
16829;DHT22;8531;48.078;11.968;2022-12-07T02:26:19;3.00;99.90
16829;DHT22;8531;48.078;11.968;2022-12-07T02:31:33;2.90;99.90
16829;DHT22;8531;48.078;11.968;2022-12-07T02:34:11;3.00;99.90
16829;DHT22;8531;48.078;11.968;2022-12-07T02:36:43;2.90;99.90
16829;DHT22;8531;48.078;11.968;2022-12-07T02:39:25;2.90;99.90
16829;DHT22;8531;48.078;11.968;2022-12-07T02:42:00;2.90;99.90
16829;DHT22;8531;48.078;11.968;2022-12-07T02:44:28;2.90;99.90
16829;DHT22;8531;48.078;11.968;2022-12-07T02:47:03;2.90;99.90
16829;DHT22;8531;48.078;11.968;2022-12-07T02:49:30;2.80;99.90
16829;DHT22;8531;48.078;11.968;2022-12-07T02:51:57;2.90;99.90
16829;DHT22;8531;48.078;11.968;2022-12-07T02:54:22;2.90;99.90
16829;DHT22;8531;48.078;11.968;2022-12-07T02:57:14;2.80;99.90
16829;DHT22;8531;48.078;11.968;2022-12-07T03:10:58;2.90;99.90
16829;DHT22;8531;48.078;11.968;2022-12-07T03:18:30;2.80;99.90
16829;DHT22;8531;48.078;11.968;2022-12-07T03:21:02;2.90;99.90
16829;DHT22;8531;48.078;11.968;2022-12-07T03:23:32;2.80;99.90
16829;DHT22;8531;48.078;11.968;2022-12-07T03:26:01;2.90;99.90
16829;DHT22;8531;48.078;11.968;2022-12-07T03:28:33;2.80;99.90
16829;DHT22;8531;48.078;11.968;2022-12-07T03:31:24;2.90;99.90
16829;DHT22;8531;48.078;11.968;2022-12-07T03:34:31;2.90;99.90
16829;DHT22;8531;48.078;11.968;2022-12-07T03:36:57;2.90;99.90
16829;DHT22;8531;48.078;11.968;2022-12-07T03:42:10;2.90;99.90
16829;DHT22;8531;48.078;11.968;2022-12-07T03:44:36;2.90;99.90
16829;DHT22;8531;48.078;11.968;2022-12-07T03:47:24;2.90;99.90
16829;DHT22;8531;48.078;11.968;2022-12-07T03:49:58;2.90;99.90
16829;DHT22;8531;48.078;11.968;2022-12-07T03:52:39;2.90;99.90
16829;DHT22;8531;48.078;11.968;2022-12-07T03:55:16;2.90;99.90
16829;DHT22;8531;48.078;11.968;2022-12-07T03:57:45;2.90;99.90
16829;DHT22;8531;48.078;11.968;2022-12-07T04:00:12;2.80;99.90
16829;DHT22;8531;48.078;11.968;2022-12-07T04:02:39;2.80;99.90
16829;DHT22;8531;48.078;11.968;2022-12-07T04:05:05;2.80;99.90
16829;DHT22;8531;48.078;11.968;2022-12-07T04:07:31;2.80;99.90
16829;DHT22;8531;48.078;11.968;2022-12-07T04:09:57;2.80;99.90
16829;DHT22;8531;48.078;11.968;2022-12-07T04:12:23;2.80;99.90
16829;DHT22;8531;48.078;11.968;2022-12-07T04:14:49;2.80;99.90
16829;DHT22;8531;48.078;11.968;2022-12-07T04:17:15;2.80;99.90
16829;DHT22;8531;48.078;11.968;2022-12-07T04:19:40;2.80;99.90
16829;DHT22;8531;48.078;11.968;2022-12-07T04:22:06;2.80;99.90
16829;DHT22;8531;48.078;11.968;2022-12-07T04:24:33;2.90;99.90
16829;DHT22;8531;48.078;11.968;2022-12-07T04:26:59;2.90;99.90
16829;DHT22;8531;48.078;11.968;2022-12-07T04:29:25;3.00;99.90
16829;DHT22;8531;48.078;11.968;2022-12-07T04:31:51;2.90;99.90
16829;DHT22;8531;48.078;11.968;2022-12-07T04:34:18;2.90;99.90
16829;DHT22;8531;48.078;11.968;2022-12-07T04:36:44;2.90;99.90
16829;DHT22;8531;48.078;11.968;2022-12-07T04:39:30;2.90;99.90
16829;DHT22;8531;48.078;11.968;2022-12-07T04:41:56;2.90;99.90
16829;DHT22;8531;48.078;11.968;2022-12-07T04:44:23;2.80;99.90
16829;DHT22;8531;48.078;11.968;2022-12-07T04:46:50;2.90;99.90
16829;DHT22;8531;48.078;11.968;2022-12-07T04:49:16;2.90;99.90
16829;DHT22;8531;48.078;11.968;2022-12-07T04:51:43;2.90;99.90
16829;DHT22;8531;48.078;11.968;2022-12-07T04:54:09;2.90;99.90
16829;DHT22;8531;48.078;11.968;2022-12-07T04:56:35;2.90;99.90
16829;DHT22;8531;48.078;11.968;2022-12-07T04:59:02;2.90;99.90
16829;DHT22;8531;48.078;11.968;2022-12-07T05:01:28;2.90;99.90
16829;DHT22;8531;48.078;11.968;2022-12-07T05:03:53;2.80;99.90
16829;DHT22;8531;48.078;11.968;2022-12-07T05:06:19;2.80;99.90
16829;DHT22;8531;48.078;11.968;2022-12-07T05:08:45;2.90;99.90
16829;DHT22;8531;48.078;11.968;2022-12-07T05:11:12;2.90;99.90
16829;DHT22;8531;48.078;11.968;2022-12-07T05:13:58;2.90;99.90
16829;DHT22;8531;48.078;11.968;2022-12-07T05:16:24;2.90;99.90
16829;DHT22;8531;48.078;11.968;2022-12-07T05:18:50;2.90;99.90
16829;DHT22;8531;48.078;11.968;2022-12-07T05:21:15;3.00;99.90
16829;DHT22;8531;48.078;11.968;2022-12-07T05:23:41;3.00;99.90
16829;DHT22;8531;48.078;11.968;2022-12-07T05:26:07;3.00;99.90
16829;DHT22;8531;48.078;11.968;2022-12-07T05:28:32;2.90;99.90
16829;DHT22;8531;48.078;11.968;2022-12-07T05:30:58;2.90;99.90
16829;DHT22;8531;48.078;11.968;2022-12-07T05:33:24;3.00;99.90
16829;DHT22;8531;48.078;11.968;2022-12-07T05:35:49;3.00;99.90
16829;DHT22;8531;48.078;11.968;2022-12-07T05:38:15;3.00;99.90
16829;DHT22;8531;48.078;11.968;2022-12-07T05:40:41;2.90;99.90
16829;DHT22;8531;48.078;11.968;2022-12-07T05:43:06;2.90;99.90
16829;DHT22;8531;48.078;11.968;2022-12-07T05:45:32;2.90;99.90
16829;DHT22;8531;48.078;11.968;2022-12-07T05:47:58;2.90;99.90
16829;DHT22;8531;48.078;11.968;2022-12-07T05:50:24;2.90;99.90
16829;DHT22;8531;48.078;11.968;2022-12-07T05:52:49;2.90;99.90
16829;DHT22;8531;48.078;11.968;2022-12-07T05:55:15;2.90;99.90
16829;DHT22;8531;48.078;11.968;2022-12-07T05:57:41;2.90;99.90
16829;DHT22;8531;48.078;11.968;2022-12-07T06:00:26;2.90;99.90
16829;DHT22;8531;48.078;11.968;2022-12-07T06:02:52;2.90;99.90
16829;DHT22;8531;48.078;11.968;2022-12-07T06:05:18;2.90;99.90
16829;DHT22;8531;48.078;11.968;2022-12-07T06:07:43;2.80;99.90
16829;DHT22;8531;48.078;11.968;2022-12-07T06:10:09;2.80;99.90
16829;DHT22;8531;48.078;11.968;2022-12-07T06:12:35;2.80;99.90
16829;DHT22;8531;48.078;11.968;2022-12-07T06:15:03;2.70;99.90
16829;DHT22;8531;48.078;11.968;2022-12-07T06:17:29;2.70;99.90
16829;DHT22;8531;48.078;11.968;2022-12-07T06:19:55;2.70;99.90
16829;DHT22;8531;48.078;11.968;2022-12-07T06:22:20;2.70;99.90
16829;DHT22;8531;48.078;11.968;2022-12-07T06:24:46;2.80;99.90
16829;DHT22;8531;48.078;11.968;2022-12-07T06:27:12;2.80;99.90
16829;DHT22;8531;48.078;11.968;2022-12-07T06:29:38;2.90;99.90
16829;DHT22;8531;48.078;11.968;2022-12-07T06:32:04;2.90;99.90
16829;DHT22;8531;48.078;11.968;2022-12-07T06:34:30;2.90;99.90
16829;DHT22;8531;48.078;11.968;2022-12-07T06:36:56;2.90;99.90
16829;DHT22;8531;48.078;11.968;2022-12-07T06:39:24;2.90;99.90
16829;DHT22;8531;48.078;11.968;2022-12-07T06:41:50;2.90;99.90
16829;DHT22;8531;48.078;11.968;2022-12-07T06:44:17;3.00;99.90
16829;DHT22;8531;48.078;11.968;2022-12-07T06:46:43;2.90;99.90
16829;DHT22;8531;48.078;11.968;2022-12-07T06:49:09;2.90;99.90
16829;DHT22;8531;48.078;11.968;2022-12-07T06:51:35;2.90;99.90
16829;DHT22;8531;48.078;11.968;2022-12-07T06:54:03;2.90;99.90
16829;DHT22;8531;48.078;11.968;2022-12-07T06:56:29;2.90;99.90
16829;DHT22;8531;48.078;11.968;2022-12-07T06:58:55;2.90;99.90
16829;DHT22;8531;48.078;11.968;2022-12-07T07:01:20;2.90;99.90
16829;DHT22;8531;48.078;11.968;2022-12-07T07:03:46;2.90;99.90
16829;DHT22;8531;48.078;11.968;2022-12-07T07:06:13;2.90;99.90
16829;DHT22;8531;48.078;11.968;2022-12-07T07:08:39;2.90;99.90
16829;DHT22;8531;48.078;11.968;2022-12-07T07:11:05;2.90;99.90
16829;DHT22;8531;48.078;11.968;2022-12-07T07:13:31;2.90;99.90
16829;DHT22;8531;48.078;11.968;2022-12-07T07:15:57;2.90;99.90
16829;DHT22;8531;48.078;11.968;2022-12-07T07:18:23;2.90;99.90
16829;DHT22;8531;48.078;11.968;2022-12-07T07:20:50;2.90;99.90
16829;DHT22;8531;48.078;11.968;2022-12-07T07:23:16;3.00;99.90
16829;DHT22;8531;48.078;11.968;2022-12-07T07:25:42;3.00;99.90
16829;DHT22;8531;48.078;11.968;2022-12-07T07:28:07;2.90;99.90
16829;DHT22;8531;48.078;11.968;2022-12-07T07:30:34;2.90;99.90
16829;DHT22;8531;48.078;11.968;2022-12-07T07:33:01;2.90;99.90
16829;DHT22;8531;48.078;11.968;2022-12-07T07:35:28;2.90;99.90
16829;DHT22;8531;48.078;11.968;2022-12-07T07:37:55;2.90;99.90
16829;DHT22;8531;48.078;11.968;2022-12-07T07:40:23;2.90;99.90
16829;DHT22;8531;48.078;11.968;2022-12-07T07:42:53;3.00;99.90
16829;DHT22;8531;48.078;11.968;2022-12-07T07:45:21;3.00;99.90
16829;DHT22;8531;48.078;11.968;2022-12-07T07:47:47;2.90;99.90
16829;DHT22;8531;48.078;11.968;2022-12-07T07:50:13;2.90;99.90
16829;DHT22;8531;48.078;11.968;2022-12-07T07:52:39;2.90;99.90
16829;DHT22;8531;48.078;11.968;2022-12-07T07:55:05;2.80;99.90
16829;DHT22;8531;48.078;11.968;2022-12-07T07:57:31;2.80;99.90
16829;DHT22;8531;48.078;11.968;2022-12-07T07:59:57;2.90;99.90
16829;DHT22;8531;48.078;11.968;2022-12-07T08:02:22;2.90;99.90
16829;DHT22;8531;48.078;11.968;2022-12-07T08:04:48;2.90;99.90
16829;DHT22;8531;48.078;11.968;2022-12-07T08:07:14;2.90;99.90
16829;DHT22;8531;48.078;11.968;2022-12-07T08:09:40;2.90;99.90
16829;DHT22;8531;48.078;11.968;2022-12-07T08:12:07;2.90;99.90
16829;DHT22;8531;48.078;11.968;2022-12-07T08:14:33;2.90;99.90
16829;DHT22;8531;48.078;11.968;2022-12-07T08:16:59;3.00;99.90
16829;DHT22;8531;48.078;11.968;2022-12-07T08:19:25;3.00;99.90
16829;DHT22;8531;48.078;11.968;2022-12-07T08:21:51;2.90;99.90
16829;DHT22;8531;48.078;11.968;2022-12-07T08:24:16;2.90;99.90
16829;DHT22;8531;48.078;11.968;2022-12-07T08:26:42;2.90;99.90
16829;DHT22;8531;48.078;11.968;2022-12-07T08:29:08;2.90;99.90
16829;DHT22;8531;48.078;11.968;2022-12-07T08:31:34;2.90;99.90
16829;DHT22;8531;48.078;11.968;2022-12-07T08:34:00;2.90;99.90
16829;DHT22;8531;48.078;11.968;2022-12-07T08:36:26;2.90;99.90
16829;DHT22;8531;48.078;11.968;2022-12-07T08:38:52;2.90;99.90
16829;DHT22;8531;48.078;11.968;2022-12-07T08:41:18;2.90;99.90
16829;DHT22;8531;48.078;11.968;2022-12-07T08:43:44;2.90;99.90
16829;DHT22;8531;48.078;11.968;2022-12-07T08:48:52;2.90;99.90
16829;DHT22;8531;48.078;11.968;2022-12-07T08:51:19;2.90;99.90
16829;DHT22;8531;48.078;11.968;2022-12-07T08:53:45;2.90;99.90
16829;DHT22;8531;48.078;11.968;2022-12-07T08:56:11;2.90;99.90
16829;DHT22;8531;48.078;11.968;2022-12-07T08:58:38;2.80;99.90
16829;DHT22;8531;48.078;11.968;2022-12-07T09:01:05;2.80;99.90
16829;DHT22;8531;48.078;11.968;2022-12-07T09:03:31;2.80;99.90
16829;DHT22;8531;48.078;11.968;2022-12-07T09:05:57;2.80;99.90
16829;DHT22;8531;48.078;11.968;2022-12-07T09:08:28;2.80;99.90
16829;DHT22;8531;48.078;11.968;2022-12-07T09:10:55;2.80;99.90
16829;DHT22;8531;48.078;11.968;2022-12-07T09:13:20;2.80;99.90
16829;DHT22;8531;48.078;11.968;2022-12-07T09:15:46;2.90;99.90
16829;DHT22;8531;48.078;11.968;2022-12-07T09:18:12;3.00;99.90
16829;DHT22;8531;48.078;11.968;2022-12-07T09:20:38;3.00;99.90
16829;DHT22;8531;48.078;11.968;2022-12-07T09:23:06;3.00;99.90
16829;DHT22;8531;48.078;11.968;2022-12-07T09:25:33;3.10;99.90
16829;DHT22;8531;48.078;11.968;2022-12-07T09:27:58;3.10;99.90
16829;DHT22;8531;48.078;11.968;2022-12-07T09:30:25;3.10;99.90
16829;DHT22;8531;48.078;11.968;2022-12-07T09:32:54;3.10;99.90
16829;DHT22;8531;48.078;11.968;2022-12-07T09:35:20;3.10;99.90
16829;DHT22;8531;48.078;11.968;2022-12-07T09:37:46;3.10;99.90
16829;DHT22;8531;48.078;11.968;2022-12-07T09:40:12;3.20;99.90
16829;DHT22;8531;48.078;11.968;2022-12-07T09:42:41;3.20;99.90
16829;DHT22;8531;48.078;11.968;2022-12-07T09:45:23;3.20;99.90
16829;DHT22;8531;48.078;11.968;2022-12-07T09:47:49;3.30;99.90
16829;DHT22;8531;48.078;11.968;2022-12-07T09:50:21;3.30;99.90
16829;DHT22;8531;48.078;11.968;2022-12-07T09:52:48;3.30;99.90
16829;DHT22;8531;48.078;11.968;2022-12-07T09:55:25;3.30;99.90
16829;DHT22;8531;48.078;11.968;2022-12-07T09:57:53;3.30;99.90
16829;DHT22;8531;48.078;11.968;2022-12-07T10:00:21;3.30;99.90
16829;DHT22;8531;48.078;11.968;2022-12-07T10:02:58;3.30;99.90
16829;DHT22;8531;48.078;11.968;2022-12-07T10:05:35;3.40;99.90
16829;DHT22;8531;48.078;11.968;2022-12-07T10:08:03;3.40;99.90
16829;DHT22;8531;48.078;11.968;2022-12-07T10:10:33;3.50;99.90
16829;DHT22;8531;48.078;11.968;2022-12-07T10:13:14;3.60;99.90
16829;DHT22;8531;48.078;11.968;2022-12-07T10:18:21;3.60;99.90
16829;DHT22;8531;48.078;11.968;2022-12-07T10:21:00;3.60;99.90
16829;DHT22;8531;48.078;11.968;2022-12-07T10:23:26;3.70;99.90
16829;DHT22;8531;48.078;11.968;2022-12-07T10:25:52;3.70;99.90
16829;DHT22;8531;48.078;11.968;2022-12-07T10:28:21;3.80;99.90
16829;DHT22;8531;48.078;11.968;2022-12-07T10:33:36;3.80;99.90
16829;DHT22;8531;48.078;11.968;2022-12-07T10:36:22;3.90;99.90
16829;DHT22;8531;48.078;11.968;2022-12-07T10:38:51;4.00;99.90
16829;DHT22;8531;48.078;11.968;2022-12-07T10:41:17;4.00;99.90
16829;DHT22;8531;48.078;11.968;2022-12-07T10:43:52;4.10;99.90
16829;DHT22;8531;48.078;11.968;2022-12-07T10:46:46;4.00;99.90
16829;DHT22;8531;48.078;11.968;2022-12-07T10:58:27;4.10;99.90
16829;DHT22;8531;48.078;11.968;2022-12-07T11:07:01;4.20;99.90
16829;DHT22;8531;48.078;11.968;2022-12-07T11:15:23;4.30;99.90
16829;DHT22;8531;48.078;11.968;2022-12-07T11:18:06;4.20;99.90
16829;DHT22;8531;48.078;11.968;2022-12-07T11:26:07;4.20;99.90
16829;DHT22;8531;48.078;11.968;2022-12-07T11:31:18;4.20;99.90
16829;DHT22;8531;48.078;11.968;2022-12-07T11:34:09;4.30;99.90
16829;DHT22;8531;48.078;11.968;2022-12-07T11:36:54;4.30;99.90
16829;DHT22;8531;48.078;11.968;2022-12-07T11:39:34;4.30;99.90
16829;DHT22;8531;48.078;11.968;2022-12-07T11:42:05;4.40;99.90
16829;DHT22;8531;48.078;11.968;2022-12-07T11:47:27;4.50;99.90
16829;DHT22;8531;48.078;11.968;2022-12-07T11:50:23;4.70;99.90
16829;DHT22;8531;48.078;11.968;2022-12-07T12:01:18;4.50;99.90
16829;DHT22;8531;48.078;11.968;2022-12-07T12:03:50;4.60;99.90
16829;DHT22;8531;48.078;11.968;2022-12-07T12:06:16;4.50;99.90
16829;DHT22;8531;48.078;11.968;2022-12-07T12:08:50;4.50;99.90
16829;DHT22;8531;48.078;11.968;2022-12-07T12:11:33;4.50;99.90
16829;DHT22;8531;48.078;11.968;2022-12-07T12:20:39;4.50;99.90
16829;DHT22;8531;48.078;11.968;2022-12-07T12:25:26;4.40;99.90
16829;DHT22;8531;48.078;11.968;2022-12-07T12:27:55;4.40;99.90
16829;DHT22;8531;48.078;11.968;2022-12-07T12:30:38;4.40;99.90
16829;DHT22;8531;48.078;11.968;2022-12-07T12:33:28;4.50;99.90
16829;DHT22;8531;48.078;11.968;2022-12-07T12:39:12;4.40;99.90
16829;DHT22;8531;48.078;11.968;2022-12-07T12:46:57;4.40;99.90
16829;DHT22;8531;48.078;11.968;2022-12-07T12:54:38;4.20;99.90
16829;DHT22;8531;48.078;11.968;2022-12-07T13:10:40;4.40;99.90
16829;DHT22;8531;48.078;11.968;2022-12-07T13:18:36;4.30;99.90
16829;DHT22;8531;48.078;11.968;2022-12-07T13:28:37;4.30;99.90
16829;DHT22;8531;48.078;11.968;2022-12-07T13:33:49;4.40;99.90
16829;DHT22;8531;48.078;11.968;2022-12-07T13:36:25;4.40;99.90
16829;DHT22;8531;48.078;11.968;2022-12-07T13:38:57;4.40;99.90
16829;DHT22;8531;48.078;11.968;2022-12-07T13:41:29;4.30;99.90
16829;DHT22;8531;48.078;11.968;2022-12-07T13:44:09;4.40;99.90
16829;DHT22;8531;48.078;11.968;2022-12-07T13:49:49;4.30;99.90
16829;DHT22;8531;48.078;11.968;2022-12-07T13:52:18;4.30;99.90
16829;DHT22;8531;48.078;11.968;2022-12-07T13:54:55;4.30;99.90
16829;DHT22;8531;48.078;11.968;2022-12-07T13:57:22;4.30;99.90
16829;DHT22;8531;48.078;11.968;2022-12-07T13:59:49;4.30;99.90
16829;DHT22;8531;48.078;11.968;2022-12-07T14:02:26;4.30;99.90
16829;DHT22;8531;48.078;11.968;2022-12-07T14:04:52;4.40;99.90
16829;DHT22;8531;48.078;11.968;2022-12-07T14:07:33;4.30;99.90
16829;DHT22;8531;48.078;11.968;2022-12-07T14:10:22;4.30;99.90
16829;DHT22;8531;48.078;11.968;2022-12-07T14:12:48;4.30;99.90
16829;DHT22;8531;48.078;11.968;2022-12-07T14:15:27;4.30;99.90
16829;DHT22;8531;48.078;11.968;2022-12-07T14:17:54;4.20;99.90
16829;DHT22;8531;48.078;11.968;2022-12-07T14:22:56;4.20;99.90
16829;DHT22;8531;48.078;11.968;2022-12-07T14:25:24;4.20;99.90
16829;DHT22;8531;48.078;11.968;2022-12-07T14:27:56;4.20;99.90
16829;DHT22;8531;48.078;11.968;2022-12-07T14:30:28;4.20;99.90
16829;DHT22;8531;48.078;11.968;2022-12-07T14:33:00;4.20;99.90
16829;DHT22;8531;48.078;11.968;2022-12-07T14:35:27;4.20;99.90
16829;DHT22;8531;48.078;11.968;2022-12-07T14:37:53;4.20;99.90
16829;DHT22;8531;48.078;11.968;2022-12-07T14:40:20;4.10;99.90
16829;DHT22;8531;48.078;11.968;2022-12-07T14:42:48;4.10;99.90
16829;DHT22;8531;48.078;11.968;2022-12-07T14:45:20;4.10;99.90
16829;DHT22;8531;48.078;11.968;2022-12-07T14:47:46;4.10;99.90
16829;DHT22;8531;48.078;11.968;2022-12-07T14:50:17;4.10;99.90
16829;DHT22;8531;48.078;11.968;2022-12-07T14:52:52;4.10;99.90
16829;DHT22;8531;48.078;11.968;2022-12-07T14:55:23;4.10;99.90
16829;DHT22;8531;48.078;11.968;2022-12-07T14:57:49;4.10;99.90
16829;DHT22;8531;48.078;11.968;2022-12-07T15:00:16;4.10;99.90
16829;DHT22;8531;48.078;11.968;2022-12-07T15:02:44;4.00;99.90
16829;DHT22;8531;48.078;11.968;2022-12-07T15:05:10;4.10;99.90
16829;DHT22;8531;48.078;11.968;2022-12-07T15:07:35;4.00;99.90
16829;DHT22;8531;48.078;11.968;2022-12-07T15:10:01;4.00;99.90
16829;DHT22;8531;48.078;11.968;2022-12-07T15:12:27;4.00;99.90
16829;DHT22;8531;48.078;11.968;2022-12-07T15:14:53;4.00;99.90
16829;DHT22;8531;48.078;11.968;2022-12-07T15:17:19;4.00;99.90
16829;DHT22;8531;48.078;11.968;2022-12-07T15:19:45;4.00;99.90
16829;DHT22;8531;48.078;11.968;2022-12-07T15:22:10;3.90;99.90
16829;DHT22;8531;48.078;11.968;2022-12-07T15:24:36;3.90;99.90
16829;DHT22;8531;48.078;11.968;2022-12-07T15:27:03;3.80;99.90
16829;DHT22;8531;48.078;11.968;2022-12-07T15:29:29;3.90;99.90
16829;DHT22;8531;48.078;11.968;2022-12-07T15:31:55;3.90;99.90
16829;DHT22;8531;48.078;11.968;2022-12-07T15:34:21;3.80;99.90
16829;DHT22;8531;48.078;11.968;2022-12-07T15:36:48;3.80;99.90
16829;DHT22;8531;48.078;11.968;2022-12-07T15:39:13;3.80;99.90
16829;DHT22;8531;48.078;11.968;2022-12-07T15:41:39;3.70;99.90
16829;DHT22;8531;48.078;11.968;2022-12-07T15:44:05;3.70;99.90
16829;DHT22;8531;48.078;11.968;2022-12-07T15:46:57;3.60;99.90
16829;DHT22;8531;48.078;11.968;2022-12-07T15:49:22;3.60;99.90
16829;DHT22;8531;48.078;11.968;2022-12-07T15:51:48;3.50;99.90
16829;DHT22;8531;48.078;11.968;2022-12-07T15:54:22;3.50;99.90
16829;DHT22;8531;48.078;11.968;2022-12-07T15:56:48;3.40;99.90
16829;DHT22;8531;48.078;11.968;2022-12-07T15:59:14;3.40;99.90
16829;DHT22;8531;48.078;11.968;2022-12-07T16:01:40;3.30;99.90
16829;DHT22;8531;48.078;11.968;2022-12-07T16:04:06;3.30;99.90
16829;DHT22;8531;48.078;11.968;2022-12-07T16:06:31;3.30;99.90
16829;DHT22;8531;48.078;11.968;2022-12-07T16:08:57;3.20;99.90
16829;DHT22;8531;48.078;11.968;2022-12-07T16:11:23;3.20;99.90
16829;DHT22;8531;48.078;11.968;2022-12-07T16:13:49;3.20;99.90
16829;DHT22;8531;48.078;11.968;2022-12-07T16:16:17;3.10;99.90
16829;DHT22;8531;48.078;11.968;2022-12-07T16:18:44;3.20;99.90
16829;DHT22;8531;48.078;11.968;2022-12-07T16:21:11;3.10;99.90
16829;DHT22;8531;48.078;11.968;2022-12-07T16:23:36;3.00;99.90
16829;DHT22;8531;48.078;11.968;2022-12-07T16:26:20;3.00;99.90
16829;DHT22;8531;48.078;11.968;2022-12-07T16:28:49;2.90;99.90
16829;DHT22;8531;48.078;11.968;2022-12-07T16:31:17;2.80;99.90
16829;DHT22;8531;48.078;11.968;2022-12-07T16:33:44;2.80;99.90
16829;DHT22;8531;48.078;11.968;2022-12-07T16:36:14;2.80;99.90
16829;DHT22;8531;48.078;11.968;2022-12-07T16:38:44;2.80;99.90
16829;DHT22;8531;48.078;11.968;2022-12-07T16:41:10;2.70;99.90
16829;DHT22;8531;48.078;11.968;2022-12-07T16:43:36;2.60;99.90
16829;DHT22;8531;48.078;11.968;2022-12-07T16:46:03;2.60;99.90
16829;DHT22;8531;48.078;11.968;2022-12-07T16:48:28;2.60;99.90
16829;DHT22;8531;48.078;11.968;2022-12-07T16:50:54;2.60;99.90
16829;DHT22;8531;48.078;11.968;2022-12-07T16:53:22;2.60;99.90
16829;DHT22;8531;48.078;11.968;2022-12-07T16:55:48;2.60;99.90
16829;DHT22;8531;48.078;11.968;2022-12-07T16:58:14;2.60;99.90
16829;DHT22;8531;48.078;11.968;2022-12-07T17:00:42;2.50;99.90
16829;DHT22;8531;48.078;11.968;2022-12-07T17:03:09;2.50;99.90
16829;DHT22;8531;48.078;11.968;2022-12-07T17:05:42;2.40;99.90
16829;DHT22;8531;48.078;11.968;2022-12-07T17:08:09;2.50;99.90
16829;DHT22;8531;48.078;11.968;2022-12-07T17:10:36;2.50;99.90
16829;DHT22;8531;48.078;11.968;2022-12-07T17:13:04;2.50;99.90
16829;DHT22;8531;48.078;11.968;2022-12-07T17:16:03;2.60;99.90
16829;DHT22;8531;48.078;11.968;2022-12-07T17:18:32;2.50;99.90
16829;DHT22;8531;48.078;11.968;2022-12-07T17:21:06;2.50;99.90
16829;DHT22;8531;48.078;11.968;2022-12-07T17:23:32;2.50;99.90
16829;DHT22;8531;48.078;11.968;2022-12-07T17:26:10;2.40;99.90
16829;DHT22;8531;48.078;11.968;2022-12-07T17:28:36;2.40;99.90
16829;DHT22;8531;48.078;11.968;2022-12-07T17:31:05;2.50;99.90
16829;DHT22;8531;48.078;11.968;2022-12-07T17:33:34;2.40;99.90
16829;DHT22;8531;48.078;11.968;2022-12-07T17:36:00;2.40;99.90
16829;DHT22;8531;48.078;11.968;2022-12-07T17:38:28;2.40;99.90
16829;DHT22;8531;48.078;11.968;2022-12-07T17:40:53;2.50;99.90
16829;DHT22;8531;48.078;11.968;2022-12-07T17:43:19;2.60;99.90
16829;DHT22;8531;48.078;11.968;2022-12-07T17:45:45;2.60;99.90
16829;DHT22;8531;48.078;11.968;2022-12-07T17:48:11;2.60;99.90
16829;DHT22;8531;48.078;11.968;2022-12-07T17:50:38;2.50;99.90
16829;DHT22;8531;48.078;11.968;2022-12-07T17:53:23;2.40;99.90
16829;DHT22;8531;48.078;11.968;2022-12-07T17:55:52;2.40;99.90
16829;DHT22;8531;48.078;11.968;2022-12-07T17:58:18;2.40;99.90
16829;DHT22;8531;48.078;11.968;2022-12-07T18:00:44;2.40;99.90
16829;DHT22;8531;48.078;11.968;2022-12-07T18:03:11;2.50;99.90
16829;DHT22;8531;48.078;11.968;2022-12-07T18:05:37;2.50;99.90
16829;DHT22;8531;48.078;11.968;2022-12-07T18:08:04;2.40;99.90
16829;DHT22;8531;48.078;11.968;2022-12-07T18:10:30;2.50;99.90